createdAt,value
2023-03-10T00:00:06.356Z,99516.03
2023-03-10T00:02:35.230Z,99522.97
2023-03-10T00:05:04.096Z,99526.63
2023-03-10T00:07:31.657Z,99515.75
2023-03-10T00:10:00.296Z,99514.91
2023-03-10T00:12:28.087Z,99513.13
2023-03-10T00:14:56.660Z,99508.91
2023-03-10T00:17:24.293Z,99504.50
2023-03-10T00:19:52.374Z,99492.50
2023-03-10T00:22:19.983Z,99489.16
2023-03-10T00:24:48.020Z,99485.22
2023-03-10T00:27:15.672Z,99486.00
2023-03-10T00:29:43.874Z,99482.00
2023-03-10T00:32:11.637Z,99480.69
2023-03-10T00:34:39.586Z,99489.41
2023-03-10T00:37:07.191Z,99487.91
2023-03-10T00:39:35.087Z,99489.75
2023-03-10T00:42:04.928Z,99482.16
2023-03-10T00:44:32.865Z,99485.75
2023-03-10T00:47:00.534Z,99482.44
2023-03-10T00:49:28.540Z,99487.13
2023-03-10T00:51:57.481Z,99482.00
2023-03-10T00:54:25.428Z,99470.88
2023-03-10T00:56:53.130Z,99469.66
2023-03-10T00:59:21.190Z,99467.28
2023-03-10T01:01:48.835Z,99465.38
2023-03-10T01:04:19.108Z,99461.94
2023-03-10T01:06:48.048Z,99448.16
2023-03-10T01:09:16.256Z,99435.78
2023-03-10T01:11:45.446Z,99437.34
2023-03-10T01:14:14.269Z,99441.19
2023-03-10T01:16:42.020Z,99433.59
2023-03-10T01:19:09.776Z,99428.00
2023-03-10T01:21:37.981Z,99426.97
2023-03-10T01:24:07.033Z,99423.44
2023-03-10T01:26:34.614Z,99415.50
2023-03-10T01:29:02.510Z,99409.06
2023-03-10T01:31:30.240Z,99401.97
2023-03-10T01:33:58.382Z,99395.31
2023-03-10T01:36:27.953Z,99397.78
2023-03-10T01:38:56.753Z,99391.19
2023-03-10T01:41:24.719Z,99385.09
2023-03-10T01:43:53.985Z,99386.47
2023-03-10T01:46:27.505Z,99382.41
2023-03-10T01:49:00.009Z,99378.78
2023-03-10T01:51:30.124Z,99379.22
2023-03-10T01:53:58.560Z,99368.44
2023-03-10T01:56:26.500Z,99355.31
2023-03-10T01:58:54.453Z,99350.13
2023-03-10T02:01:22.023Z,99350.22
2023-03-10T02:03:52.509Z,99349.09
2023-03-10T02:06:21.101Z,99337.59
2023-03-10T02:08:54.945Z,99340.28
2023-03-10T02:11:22.741Z,99329.03
2023-03-10T02:13:52.501Z,99318.19
2023-03-10T02:16:20.671Z,99322.66
2023-03-10T02:18:49.502Z,99313.34
2023-03-10T02:21:26.307Z,99312.44
2023-03-10T02:24:01.718Z,99316.31
2023-03-10T02:26:32.624Z,99307.66
2023-03-10T02:29:02.365Z,99313.34
2023-03-10T02:31:29.949Z,99314.53
2023-03-10T02:33:58.115Z,99307.41
2023-03-10T02:36:25.834Z,99302.97
2023-03-10T02:38:53.586Z,99310.91
2023-03-10T02:41:29.454Z,99310.53
2023-03-10T02:44:00.224Z,99312.19
2023-03-10T02:46:30.133Z,99311.38
2023-03-10T02:49:02.216Z,99313.97
2023-03-10T02:51:47.184Z,99311.16
2023-03-10T02:54:18.173Z,99299.75
2023-03-10T02:56:45.746Z,99287.31
2023-03-10T02:59:16.455Z,99290.38
2023-03-10T03:01:49.381Z,99289.31
2023-03-10T03:04:19.738Z,99283.84
2023-03-10T03:06:47.823Z,99283.44
2023-03-10T03:09:16.163Z,99267.94
2023-03-10T03:11:46.346Z,99277.06
2023-03-10T03:14:14.692Z,99269.28
2023-03-10T03:16:43.242Z,99266.84
2023-03-10T03:19:12.330Z,99266.22
2023-03-10T03:21:40.781Z,99252.75
2023-03-10T03:24:10.302Z,99258.63
2023-03-10T03:26:37.820Z,99253.31
2023-03-10T03:29:14.502Z,99240.84
2023-03-10T03:31:42.520Z,99243.66
2023-03-10T03:34:15.849Z,99247.94
2023-03-10T03:36:44.771Z,99242.41
2023-03-10T03:39:17.569Z,99243.97
2023-03-10T03:41:53.488Z,99241.19
2023-03-10T03:44:22.030Z,99237.56
2023-03-10T03:46:50.789Z,99226.88
2023-03-10T03:49:19.329Z,99229.22
2023-03-10T03:51:47.300Z,99228.53
2023-03-10T03:54:15.084Z,99224.72
2023-03-10T03:56:42.960Z,99233.81
2023-03-10T03:59:13.432Z,99226.78
2023-03-10T04:01:41.731Z,99223.59
2023-03-10T04:04:10.629Z,99218.53
2023-03-10T04:06:38.203Z,99221.72
2023-03-10T04:09:10.764Z,99214.28
2023-03-10T04:11:39.402Z,99204.13
2023-03-10T04:14:07.530Z,99202.69
2023-03-10T04:16:35.503Z,99218.28
2023-03-10T04:19:07.806Z,99206.41
2023-03-10T04:21:38.736Z,99208.78
2023-03-10T04:24:06.992Z,99203.09
2023-03-10T04:26:34.743Z,99206.50
2023-03-10T04:29:04.192Z,99209.38
2023-03-10T04:31:33.849Z,99193.94
2023-03-10T04:34:03.496Z,99195.34
2023-03-10T04:36:31.858Z,99188.53
2023-03-10T04:39:02.340Z,99179.78
2023-03-10T04:41:32.467Z,99181.59
2023-03-10T04:44:00.604Z,99170.91
2023-03-10T04:46:29.214Z,99168.69
2023-03-10T04:48:57.715Z,99156.28
2023-03-10T04:51:25.424Z,99157.38
2023-03-10T04:53:57.514Z,99152.78
2023-03-10T04:56:29.496Z,99145.38
2023-03-10T04:58:57.396Z,99143.56
2023-03-10T05:01:26.108Z,99130.13
2023-03-10T05:04:03.833Z,99120.50
2023-03-10T05:06:32.742Z,99113.50
2023-03-10T05:09:14.614Z,99100.97
2023-03-10T05:11:42.425Z,99090.66
2023-03-10T05:14:12.064Z,99099.03
2023-03-10T05:16:39.610Z,99095.50
2023-03-10T05:19:08.969Z,99076.47
2023-03-10T05:21:36.990Z,99067.88
2023-03-10T05:24:05.696Z,99073.47
2023-03-10T05:26:34.984Z,99083.75
2023-03-10T05:29:05.008Z,99085.22
2023-03-10T05:31:42.019Z,99082.47
2023-03-10T05:34:14.915Z,99069.31
2023-03-10T05:36:43.754Z,99080.13
2023-03-10T05:39:11.884Z,99071.22
2023-03-10T05:41:44.540Z,99076.53
2023-03-10T05:44:12.901Z,99077.25
2023-03-10T05:46:41.225Z,99081.78
2023-03-10T05:49:09.472Z,99080.50
2023-03-10T05:51:37.745Z,99079.28
2023-03-10T05:54:06.481Z,99079.13
2023-03-10T05:56:34.484Z,99076.53
2023-03-10T05:59:04.383Z,99074.22
2023-03-10T06:01:35.303Z,99069.66
2023-03-10T06:04:04.037Z,99067.34
2023-03-10T06:06:31.780Z,99056.75
2023-03-10T06:08:59.941Z,99056.88
2023-03-10T06:11:27.791Z,99063.94
2023-03-10T06:13:55.911Z,99067.41
2023-03-10T06:16:23.460Z,99051.78
2023-03-10T06:18:55.284Z,99047.50
2023-03-10T06:21:23.985Z,99057.91
2023-03-10T06:23:52.527Z,99058.34
2023-03-10T06:26:20.148Z,99065.56
2023-03-10T06:28:48.461Z,99054.63
2023-03-10T06:31:17.930Z,99058.63
2023-03-10T06:33:45.886Z,99057.31
2023-03-10T06:36:13.965Z,99054.00
2023-03-10T06:38:42.211Z,99054.03
2023-03-10T06:41:09.792Z,99059.50
2023-03-10T06:43:37.770Z,99044.16
2023-03-10T06:46:06.591Z,99055.59
2023-03-10T06:48:35.004Z,99057.38
2023-03-10T06:51:05.400Z,99053.50
2023-03-10T06:53:33.283Z,99055.13
2023-03-10T06:56:02.322Z,99048.22
2023-03-10T06:58:31.590Z,99056.56
2023-03-10T07:00:59.445Z,99045.84
2023-03-10T07:03:29.255Z,99043.16
2023-03-10T07:05:59.372Z,99044.34
2023-03-10T07:08:30.704Z,99027.50
2023-03-10T07:10:58.281Z,99031.44
2023-03-10T07:13:26.204Z,99032.63
2023-03-10T07:15:53.805Z,99030.00
2023-03-10T07:18:21.671Z,99026.53
2023-03-10T07:20:49.176Z,99030.72
2023-03-10T07:23:17.053Z,99024.56
2023-03-10T07:25:44.670Z,99021.59
2023-03-10T07:28:12.913Z,99016.22
2023-03-10T07:30:41.451Z,99013.06
2023-03-10T07:33:09.261Z,99000.09
2023-03-10T07:35:37.300Z,99000.06
2023-03-10T07:38:05.393Z,98997.47
2023-03-10T07:40:32.944Z,98992.47
2023-03-10T07:43:00.954Z,98992.88
2023-03-10T07:45:31.085Z,98987.09
2023-03-10T07:47:59.634Z,98989.03
2023-03-10T07:50:27.184Z,98985.94
2023-03-10T07:52:55.863Z,98980.91
2023-03-10T07:55:23.426Z,98978.50
2023-03-10T07:57:51.283Z,98980.78
2023-03-10T08:00:19.322Z,98982.22
2023-03-10T08:02:47.169Z,98979.50
2023-03-10T08:05:15.228Z,98983.66
2023-03-10T08:07:43.997Z,98976.13
2023-03-10T08:10:12.056Z,98979.63
2023-03-10T08:12:40.200Z,98980.97
2023-03-10T08:15:07.930Z,98984.81
2023-03-10T08:17:35.897Z,98982.50
2023-03-10T08:20:06.720Z,98966.81
2023-03-10T08:22:34.600Z,98965.28
2023-03-10T08:25:02.386Z,98952.88
2023-03-10T08:27:30.487Z,98944.47
2023-03-10T08:29:58.103Z,98940.13
2023-03-10T08:32:26.574Z,98947.31
2023-03-10T08:34:54.119Z,98942.28
2023-03-10T08:37:22.102Z,98935.22
2023-03-10T08:39:52.231Z,98937.00
2023-03-10T08:42:20.171Z,98935.19
2023-03-10T08:44:47.668Z,98928.81
2023-03-10T08:47:15.539Z,98923.88
2023-03-10T08:49:45.676Z,98922.34
2023-03-10T08:52:15.220Z,98928.50
2023-03-10T08:54:42.841Z,98935.75
2023-03-10T08:57:10.643Z,98936.81
2023-03-10T08:59:38.164Z,98930.94
2023-03-10T09:02:06.164Z,98933.38
2023-03-10T09:04:33.751Z,98933.34
2023-03-10T09:07:01.672Z,98927.03
2023-03-10T09:09:29.203Z,98923.75
2023-03-10T09:11:57.167Z,98931.03
2023-03-10T09:14:24.722Z,98930.50
2023-03-10T09:16:52.657Z,98927.22
2023-03-10T09:19:20.335Z,98923.09
2023-03-10T09:21:48.354Z,98920.00
2023-03-10T09:24:16.005Z,98921.63
2023-03-10T09:26:44.817Z,98911.69
2023-03-10T09:29:12.560Z,98905.59
2023-03-10T09:31:40.500Z,98898.78
2023-03-10T09:34:08.528Z,98900.63
2023-03-10T09:39:04.270Z,98903.47
2023-03-10T09:41:44.444Z,98901.28
2023-03-10T09:44:30.994Z,98903.31
2023-03-10T09:47:12.092Z,98896.59
2023-03-10T09:49:43.461Z,98885.78
2023-03-10T09:52:29.871Z,98891.63
2023-03-10T09:54:57.443Z,98883.53
2023-03-10T09:57:25.466Z,98876.00
2023-03-10T09:59:56.109Z,98886.03
2023-03-10T10:02:33.221Z,98886.03
2023-03-10T10:05:04.144Z,98882.78
2023-03-10T10:07:41.432Z,98880.88
2023-03-10T10:10:15.576Z,98874.41
2023-03-10T10:12:44.784Z,98875.88
2023-03-10T10:15:15.248Z,98875.03
2023-03-10T10:18:15.831Z,98872.47
2023-03-10T10:20:45.813Z,98869.19
2023-03-10T10:23:32.385Z,98879.91
2023-03-10T10:26:05.772Z,98867.34
2023-03-10T10:28:42.276Z,98865.91
2023-03-10T10:31:17.628Z,98856.06
2023-03-10T10:34:24.125Z,98858.56
2023-03-10T10:36:52.698Z,98849.13
2023-03-10T10:39:40.897Z,98851.16
2023-03-10T10:42:24.712Z,98851.00
2023-03-10T10:44:59.447Z,98843.44
2023-03-10T10:47:34.990Z,98847.47
2023-03-10T10:50:25.429Z,98843.16
2023-03-10T10:53:11.189Z,98848.88
2023-03-10T10:55:39.440Z,98837.66
2023-03-10T10:58:23.881Z,98841.81
2023-03-10T11:00:56.276Z,98846.41
2023-03-10T11:03:29.398Z,98844.44
2023-03-10T11:05:58.602Z,98836.44
2023-03-10T11:08:35.390Z,98845.72
2023-03-10T11:11:14.862Z,98832.94
2023-03-10T11:13:51.354Z,98832.38
2023-03-10T11:16:38.084Z,98841.66
2023-03-10T11:19:10.521Z,98832.91
2023-03-10T11:21:42.597Z,98832.34
2023-03-10T11:24:19.332Z,98825.44
2023-03-10T11:26:50.337Z,98825.44
2023-03-10T11:29:20.633Z,98822.31
2023-03-10T11:32:08.786Z,98829.63
2023-03-10T11:34:39.133Z,98825.28
2023-03-10T11:37:26.398Z,98819.91
2023-03-10T11:40:08.847Z,98823.00
2023-03-10T11:42:42.984Z,98821.66
2023-03-10T11:45:20.781Z,98823.84
2023-03-10T11:47:48.876Z,98810.63
2023-03-10T11:50:21.342Z,98805.16
2023-03-10T11:52:51.052Z,98805.75
2023-03-10T11:55:20.863Z,98788.19
2023-03-10T11:57:50.614Z,98790.72
2023-03-10T12:00:27.188Z,98784.38
2023-03-10T12:03:04.422Z,98780.56
2023-03-10T12:05:39.651Z,98786.72
2023-03-10T12:08:08.020Z,98772.91
2023-03-10T12:10:38.621Z,98773.53
2023-03-10T12:13:06.862Z,98767.66
2023-03-10T12:15:38.350Z,98769.19
2023-03-10T12:18:07.212Z,98767.00
2023-03-10T12:20:35.590Z,98762.81
2023-03-10T12:23:09.439Z,98756.25
2023-03-10T12:25:38.549Z,98759.97
2023-03-10T12:28:25.080Z,98759.19
2023-03-10T12:30:57.751Z,98746.13
2023-03-10T12:33:42.120Z,98758.38
2023-03-10T12:36:09.816Z,98739.91
2023-03-10T12:38:57.863Z,98737.34
2023-03-10T12:41:28.402Z,98740.81
2023-03-10T12:43:59.935Z,98722.03
2023-03-10T12:46:41.486Z,98733.13
2023-03-10T12:49:24.661Z,98736.59
2023-03-10T12:51:55.496Z,98735.91
2023-03-10T12:54:43.093Z,98733.88
2023-03-10T12:57:25.344Z,98726.34
2023-03-10T13:00:13.530Z,98716.97
2023-03-10T13:03:03.756Z,98739.78
2023-03-10T13:05:35.364Z,98714.06
2023-03-10T13:08:13.687Z,98711.56
2023-03-10T13:10:41.593Z,98709.25
2023-03-10T13:13:14.566Z,98722.16
2023-03-10T13:15:42.550Z,98730.75
2023-03-10T13:18:12.038Z,98731.47
2023-03-10T13:20:40.006Z,98730.75
2023-03-10T13:23:18.632Z,98731.44
2023-03-10T13:25:53.520Z,98723.69
2023-03-10T13:28:21.214Z,98728.72
2023-03-10T13:30:49.379Z,98711.75
2023-03-10T13:33:25.331Z,98714.63
2023-03-10T13:35:53.975Z,98714.31
2023-03-10T13:38:22.380Z,98710.94
2023-03-10T13:40:58.547Z,98702.59
2023-03-10T13:43:45.958Z,98708.22
2023-03-10T13:46:25.961Z,98704.72
2023-03-10T13:48:54.600Z,98705.69
2023-03-10T13:51:31.929Z,98706.50
2023-03-10T13:54:19.800Z,98714.81
2023-03-10T13:56:49.275Z,98715.63
2023-03-10T13:59:20.464Z,98714.25
2023-03-10T14:01:50.243Z,98722.81
2023-03-10T14:04:19.349Z,98714.16
2023-03-10T14:07:06.439Z,98707.22
2023-03-10T14:09:33.974Z,98690.13
2023-03-10T14:12:03.013Z,98699.97
2023-03-10T14:14:35.092Z,98705.75
2023-03-10T14:17:04.396Z,98699.69
2023-03-10T14:19:44.031Z,98715.81
2023-03-10T14:22:30.523Z,98714.25
2023-03-10T14:24:58.918Z,98713.94
2023-03-10T14:27:27.856Z,98701.09
2023-03-10T14:29:56.712Z,98703.06
2023-03-10T14:32:25.267Z,98693.41
2023-03-10T14:34:52.904Z,98696.97
2023-03-10T14:37:21.066Z,98687.03
2023-03-10T14:39:48.792Z,98700.72
2023-03-10T14:42:21.539Z,98715.34
2023-03-10T14:44:49.787Z,98717.53
2023-03-10T14:47:18.195Z,98709.66
2023-03-10T14:49:46.151Z,98709.88
2023-03-10T14:52:15.677Z,98709.41
2023-03-10T14:54:43.297Z,98710.25
2023-03-10T14:57:12.188Z,98709.75
2023-03-10T14:59:41.169Z,98709.47
2023-03-10T15:02:19.371Z,98713.09
2023-03-10T15:04:47.406Z,98710.63
2023-03-10T15:07:15.815Z,98700.56
2023-03-10T15:09:44.273Z,98706.22
2023-03-10T15:12:14.238Z,98705.25
2023-03-10T15:14:45.230Z,98709.41
2023-03-10T15:17:13.460Z,98710.22
2023-03-10T15:19:41.148Z,98702.94
2023-03-10T15:22:09.428Z,98711.25
2023-03-10T15:24:36.966Z,98713.22
2023-03-10T15:27:04.877Z,98696.88
2023-03-10T15:29:32.448Z,98696.25
2023-03-10T15:32:02.016Z,98709.41
2023-03-10T15:34:29.884Z,98706.63
2023-03-10T15:36:57.816Z,98703.22
2023-03-10T15:39:31.460Z,98697.88
2023-03-10T15:42:00.653Z,98695.00
2023-03-10T15:44:28.222Z,98708.78
2023-03-10T15:46:56.639Z,98724.34
2023-03-10T15:49:24.219Z,98719.47
2023-03-10T15:51:52.049Z,98695.00
2023-03-10T15:54:19.631Z,98700.88
2023-03-10T15:56:47.628Z,98711.97
2023-03-10T15:59:15.480Z,98710.56
2023-03-10T16:01:43.613Z,98713.00
2023-03-10T16:04:11.289Z,98708.28
2023-03-10T16:06:39.457Z,98704.97
2023-03-10T16:09:09.053Z,98711.09
2023-03-10T16:11:36.993Z,98721.97
2023-03-10T16:14:04.607Z,98734.34
2023-03-10T16:16:32.709Z,98732.88
2023-03-10T16:19:00.420Z,98730.84
2023-03-10T16:21:28.446Z,98732.41
2023-03-10T16:23:56.105Z,98721.84
2023-03-10T16:26:24.846Z,98714.03
2023-03-10T16:28:53.729Z,98716.06
2023-03-10T16:31:23.660Z,98714.94
2023-03-10T16:33:52.364Z,98698.16
2023-03-10T16:36:22.103Z,98693.50
2023-03-10T16:38:50.019Z,98704.91
2023-03-10T16:41:17.912Z,98679.38
2023-03-10T16:43:46.680Z,98678.53
2023-03-10T16:46:25.064Z,98662.19
2023-03-10T16:48:53.733Z,98664.19
2023-03-10T16:51:26.769Z,98674.31
2023-03-10T16:53:56.306Z,98671.13
2023-03-10T16:56:25.377Z,98680.56
2023-03-10T16:58:53.517Z,98677.09
2023-03-10T17:01:24.245Z,98664.34
2023-03-10T17:03:52.948Z,98671.03
2023-03-10T17:06:22.899Z,98673.16
2023-03-10T17:08:51.577Z,98675.84
2023-03-10T17:11:21.618Z,98683.13
2023-03-10T17:13:52.720Z,98690.00
2023-03-10T17:16:23.887Z,98678.78
2023-03-10T17:18:51.727Z,98681.19
2023-03-10T17:21:21.350Z,98682.31
2023-03-10T17:23:49.679Z,98695.25
2023-03-10T17:26:18.270Z,98683.00
2023-03-10T17:28:49.825Z,98692.19
2023-03-10T17:31:21.131Z,98686.78
2023-03-10T17:33:48.983Z,98698.09
2023-03-10T17:36:17.651Z,98703.56
2023-03-10T17:38:45.839Z,98710.00
2023-03-10T17:41:15.633Z,98727.94
2023-03-10T17:43:43.422Z,98728.53
2023-03-10T17:46:16.271Z,98739.81
2023-03-10T17:48:44.292Z,98701.09
2023-03-10T17:51:16.930Z,98705.09
2023-03-10T17:53:45.355Z,98727.75
2023-03-10T17:56:13.994Z,98729.50
2023-03-10T17:58:41.737Z,98726.03
2023-03-10T18:01:11.025Z,98737.66
2023-03-10T18:03:38.839Z,98730.19
2023-03-10T18:06:17.894Z,98732.06
2023-03-10T18:08:45.817Z,98726.97
2023-03-10T18:11:14.125Z,98715.59
2023-03-10T18:13:42.158Z,98733.47
2023-03-10T18:16:36.412Z,98729.69
2023-03-10T18:19:04.636Z,98731.44
2023-03-10T18:21:32.870Z,98727.13
2023-03-10T18:24:00.560Z,98712.16
2023-03-10T18:26:34.159Z,98706.25
2023-03-10T18:29:01.818Z,98723.06
2023-03-10T18:31:31.521Z,98707.88
2023-03-10T18:33:59.388Z,98716.34
2023-03-10T18:36:27.586Z,98723.25
2023-03-10T18:38:55.383Z,98728.94
2023-03-10T18:41:25.669Z,98722.91
2023-03-10T18:43:53.668Z,98731.59
2023-03-10T18:46:22.466Z,98731.00
2023-03-10T18:48:55.745Z,98729.81
2023-03-10T18:51:25.112Z,98716.44
2023-03-10T18:53:57.410Z,98715.22
2023-03-10T18:56:29.214Z,98722.16
2023-03-10T18:58:57.139Z,98713.81
2023-03-10T19:01:26.966Z,98710.38
2023-03-10T19:03:54.997Z,98717.56
2023-03-10T19:06:23.052Z,98734.44
2023-03-10T19:08:53.343Z,98745.78
2023-03-10T19:11:24.771Z,98746.69
2023-03-10T19:13:52.533Z,98735.47
2023-03-10T19:16:21.604Z,98744.47
2023-03-10T19:18:49.421Z,98744.56
2023-03-10T19:21:17.502Z,98749.34
2023-03-10T19:23:46.082Z,98752.28
2023-03-10T19:26:15.659Z,98750.03
2023-03-10T19:28:43.412Z,98756.84
2023-03-10T19:31:13.029Z,98751.91
2023-03-10T19:33:41.000Z,98742.84
2023-03-10T19:36:12.746Z,98746.06
2023-03-10T19:38:41.185Z,98751.50
2023-03-10T19:41:16.549Z,98757.19
2023-03-10T19:43:45.563Z,98747.72
2023-03-10T19:46:14.752Z,98738.13
2023-03-10T19:48:42.954Z,98739.34
2023-03-10T19:51:18.602Z,98742.84
2023-03-10T19:53:46.533Z,98740.53
2023-03-10T19:56:16.880Z,98744.06
2023-03-10T19:58:45.965Z,98752.31
2023-03-10T20:01:15.188Z,98760.44
2023-03-10T20:03:43.687Z,98768.72
2023-03-10T20:06:11.863Z,98776.53
2023-03-10T20:08:40.016Z,98775.91
2023-03-10T20:11:11.931Z,98783.25
2023-03-10T20:13:40.124Z,98785.56
2023-03-10T20:16:08.950Z,98797.16
2023-03-10T20:18:36.813Z,98810.31
2023-03-10T20:21:05.883Z,98816.38
2023-03-10T20:23:34.697Z,98811.75
2023-03-10T20:26:07.484Z,98827.88
2023-03-10T20:28:35.811Z,98827.91
2023-03-10T20:31:03.945Z,98822.88
2023-03-10T20:33:31.638Z,98821.75
2023-03-10T20:35:59.803Z,98826.75
2023-03-10T20:38:27.533Z,98819.44
2023-03-10T20:40:55.524Z,98812.19
2023-03-10T20:43:23.294Z,98811.34
2023-03-10T20:45:52.838Z,98818.66
2023-03-10T20:48:20.574Z,98821.63
2023-03-10T20:50:53.665Z,98820.59
2023-03-10T20:53:21.323Z,98812.88
2023-03-10T20:55:49.263Z,98805.94
2023-03-10T20:58:17.383Z,98805.22
2023-03-10T21:00:48.399Z,98797.53
2023-03-10T21:03:16.068Z,98812.13
2023-03-10T21:05:44.762Z,98808.72
2023-03-10T21:08:12.301Z,98811.00
2023-03-10T21:10:41.135Z,98802.53
2023-03-10T21:13:08.600Z,98799.84
2023-03-10T21:15:36.835Z,98806.75
2023-03-10T21:18:04.427Z,98822.59
2023-03-10T21:20:32.256Z,98822.13
2023-03-10T21:23:00.674Z,98822.50
2023-03-10T21:25:28.534Z,98821.38
2023-03-10T21:27:59.227Z,98819.50
2023-03-10T21:30:31.960Z,98826.06
2023-03-10T21:32:59.505Z,98822.63
2023-03-10T21:35:30.644Z,98809.22
2023-03-10T21:37:59.488Z,98791.91
2023-03-10T21:40:27.467Z,98804.94
2023-03-10T21:42:54.990Z,98803.81
2023-03-10T21:45:24.115Z,98809.59
2023-03-10T21:47:51.714Z,98819.53
2023-03-10T21:50:19.803Z,98824.94
2023-03-10T21:52:48.302Z,98832.63
2023-03-10T21:55:21.032Z,98828.75
2023-03-10T21:57:48.863Z,98810.38
2023-03-10T22:00:19.399Z,98816.13
2023-03-10T22:02:47.418Z,98804.19
2023-03-10T22:05:16.778Z,98812.63
2023-03-10T22:07:44.399Z,98808.41
2023-03-10T22:10:12.849Z,98815.31
2023-03-10T22:12:40.415Z,98822.22
2023-03-10T22:15:09.601Z,98827.94
2023-03-10T22:17:37.194Z,98827.59
2023-03-10T22:20:07.209Z,98811.09
2023-03-10T22:22:34.969Z,98805.69
2023-03-10T22:25:03.190Z,98806.88
2023-03-10T22:27:30.878Z,98801.03
2023-03-10T22:29:58.728Z,98802.22
2023-03-10T22:32:26.441Z,98804.88
2023-03-10T22:34:54.603Z,98809.78
2023-03-10T22:37:22.121Z,98796.78
2023-03-10T22:39:49.986Z,98798.88
2023-03-10T22:42:17.685Z,98798.25
2023-03-10T22:44:45.563Z,98786.78
2023-03-10T22:47:13.007Z,98787.25
2023-03-10T22:49:41.397Z,98788.78
2023-03-10T22:52:09.071Z,98788.03
2023-03-10T22:54:36.923Z,98784.97
2023-03-10T22:57:04.642Z,98788.41
2023-03-10T22:59:32.447Z,98789.97
2023-03-10T23:01:59.987Z,98792.28
2023-03-10T23:04:27.895Z,98796.53
2023-03-10T23:06:55.333Z,98803.44
2023-03-10T23:09:23.295Z,98798.81
2023-03-10T23:11:51.090Z,98801.88
2023-03-10T23:14:18.886Z,98809.59
2023-03-10T23:16:46.395Z,98813.03
2023-03-10T23:19:14.266Z,98803.41
2023-03-10T23:21:41.716Z,98808.81
2023-03-10T23:24:09.719Z,98807.28
2023-03-10T23:26:37.697Z,98793.09
2023-03-10T23:29:05.559Z,98801.91
2023-03-10T23:31:33.149Z,98798.06
2023-03-10T23:34:01.027Z,98799.97
2023-03-10T23:36:28.497Z,98806.47
2023-03-10T23:38:56.430Z,98815.75
2023-03-10T23:41:24.078Z,98806.50
2023-03-10T23:43:52.534Z,98796.94
2023-03-10T23:46:22.176Z,98803.41
2023-03-10T23:48:50.973Z,98797.69
2023-03-10T23:51:18.502Z,98814.59
2023-03-10T23:53:46.411Z,98808.44
2023-03-10T23:56:13.941Z,98807.28
2023-03-10T23:58:41.842Z,98818.00
